Terminal Aerodrome Forecast
Issued by NWS

Home | Current Version | Previous Version | Text Only | Print | Product List | Glossary On
Versions: 1 2 3 4 5 6 7 8 9 10 11 12 13
000
FTUS46 KMTR 252353
TAFOAK
TAF
KOAK 252353Z 2600/2706 29012KT P6SM FEW010
     FM260400 29009KT 6SM BR SCT008
      TEMPO 2607/2611 4SM BR HZ BKN008
     FM261100 30004KT 2SM BR HZ OVC008
     FM261600 29004KT 6SM HZ SCT015 BKN090
     FM262100 30012KT 6SM HZ FEW015 SCT090
     FM270400 28010KT 5SM BR HZ FEW010 SCT090=

USA.gov is the U.S. government's official web portal to all federal, state and local government web resources and services.